Time;durP1;ratioP1;P1;durP2;ratioP2;P2;SDS_P1;SDS_P2;PMS_P1;PMS_P2;Temp;Humidity;BMP_temperature;BMP_pressure;BME280_temperature;BME280_humidity;BME280_pressure;Samples;Min_cycle;Max_cycle;Signal;HPM_P1;HPM_P2
2021/04/06 00:01:22;;;;;;;4.55;1.05;;;2.60;91.70;;;;;;4983502;28;20031;-73
2021/04/06 00:03:50;;;;;;;1.95;0.90;;;2.60;91.80;;;;;;4984977;28;20069;-73
2021/04/06 00:06:16;;;;;;;4.47;1.00;;;2.60;91.90;;;;;;4984538;28;20054;-73
2021/04/06 00:08:42;;;;;;;5.85;1.38;;;2.60;91.90;;;;;;4987551;28;20030;-73
2021/04/06 00:11:12;;;;;;;6.68;0.80;;;2.50;91.80;;;;;;4982091;28;20030;-72
2021/04/06 00:13:39;;;;;;;3.65;0.88;;;2.50;92.00;;;;;;4985141;28;20066;-72
2021/04/06 00:16:07;;;;;;;2.03;1.08;;;2.40;92.30;;;;;;4977126;28;20517;-72
2021/04/06 00:18:34;;;;;;;2.92;1.08;;;2.40;92.40;;;;;;4987307;28;20033;-72
2021/04/06 00:21:03;;;;;;;6.40;1.00;;;2.40;92.40;;;;;;4983240;28;20030;-72
2021/04/06 00:23:31;;;;;;;5.35;0.70;;;2.40;92.50;;;;;;4987455;28;20022;-73
2021/04/06 00:25:58;;;;;;;1.80;0.80;;;2.40;92.40;;;;;;4987095;28;20034;-72
2021/04/06 00:28:29;;;;;;;2.65;0.90;;;2.40;92.70;;;;;;4987133;28;20034;-72
2021/04/06 00:30:56;;;;;;;3.85;1.02;;;2.40;92.70;;;;;;4986118;28;20045;-73
2021/04/06 00:33:27;;;;;;;4.57;1.15;;;2.30;92.90;;;;;;4986965;28;20030;-73
2021/04/06 00:35:58;;;;;;;2.10;0.88;;;2.30;93.20;;;;;;4984113;28;20034;-73
2021/04/06 00:38:27;;;;;;;4.32;0.93;;;2.30;93.40;;;;;;4984755;28;20041;-72
2021/04/06 00:40:58;;;;;;;3.33;0.75;;;2.20;93.60;;;;;;4980644;28;20042;-73
2021/04/06 00:43:33;;;;;;;3.47;1.02;;;2.30;93.90;;;;;;4974995;28;20524;-73
2021/04/06 00:45:59;;;;;;;4.22;1.10;;;2.20;94.00;;;;;;4989294;28;20034;-72
2021/04/06 00:48:24;;;;;;;4.00;1.05;;;2.20;94.20;;;;;;4984261;28;20042;-73
2021/04/06 00:51:23;;;;;;;3.75;1.10;;;2.20;94.60;;;;;;4987792;28;20378;-73
2021/04/06 00:53:51;;;;;;;4.63;0.88;;;2.20;94.70;;;;;;4955129;28;20057;-72
2021/04/06 00:56:17;;;;;;;3.60;0.70;;;2.20;94.80;;;;;;4975566;28;20031;-72
2021/04/06 00:58:43;;;;;;;3.95;0.85;;;2.10;95.00;;;;;;4987830;28;20141;-72
2021/04/06 01:01:10;;;;;;;10.02;0.90;;;2.10;95.20;;;;;;4992070;28;20389;-72
2021/04/06 01:03:39;;;;;;;5.13;1.20;;;2.10;95.30;;;;;;4983170;28;20535;-72
2021/04/06 01:06:06;;;;;;;2.67;0.88;;;2.10;95.70;;;;;;4985096;28;20469;-72
2021/04/06 01:08:33;;;;;;;4.63;0.88;;;2.10;95.90;;;;;;4991375;28;20046;-72
2021/04/06 01:11:00;;;;;;;4.63;1.10;;;2.10;95.90;;;;;;4989669;28;20034;-73
2021/04/06 01:13:26;;;;;;;6.70;1.50;;;2.10;96.10;;;;;;4985008;28;20038;-73
2021/04/06 01:15:52;;;;;;;5.68;1.17;;;2.10;96.40;;;;;;4988570;28;20048;-72
2021/04/06 01:18:18;;;;;;;6.80;0.90;;;2.00;96.50;;;;;;4991548;28;20113;-72
2021/04/06 01:20:44;;;;;;;2.55;0.90;;;2.00;96.80;;;;;;4984056;28;20118;-73
2021/04/06 01:23:11;;;;;;;4.95;0.98;;;2.00;97.50;;;;;;4989542;28;20034;-73
2021/04/06 01:25:43;;;;;;;6.45;1.30;;;2.00;97.40;;;;;;4990987;28;20062;-72
2021/04/06 01:28:10;;;;;;;6.38;1.20;;;2.00;97.60;;;;;;4990649;28;20121;-72
2021/04/06 01:30:46;;;;;;;5.03;1.10;;;2.00;97.80;;;;;;4986019;28;20038;-72
2021/04/06 01:33:17;;;;;;;1.90;0.80;;;2.00;97.80;;;;;;4987637;28;20106;-72
2021/04/06 01:35:51;;;;;;;5.05;1.00;;;2.00;97.90;;;;;;4990867;28;20448;-72
2021/04/06 01:38:18;;;;;;;2.45;0.77;;;2.00;98.20;;;;;;4989122;28;20113;-72
2021/04/06 01:40:46;;;;;;;5.35;1.25;;;1.90;98.40;;;;;;4990221;28;20037;-72
2021/04/06 01:43:14;;;;;;;5.38;0.70;;;1.90;99.00;;;;;;4988845;28;20454;-72
2021/04/06 01:45:48;;;;;;;6.65;0.93;;;2.00;99.00;;;;;;4979346;28;20042;-72
2021/04/06 01:48:14;;;;;;;3.10;1.00;;;2.00;99.10;;;;;;4991768;28;20055;-72
2021/04/06 01:50:42;;;;;;;5.03;1.30;;;2.00;99.00;;;;;;4984942;28;20026;-72
2021/04/06 01:53:08;;;;;;;2.90;0.90;;;1.90;99.30;;;;;;4990295;28;20450;-73
2021/04/06 01:55:36;;;;;;;3.05;1.15;;;1.90;99.60;;;;;;4984056;28;20073;-73
2021/04/06 01:58:03;;;;;;;10.20;2.15;;;1.90;99.70;;;;;;4985341;28;20026;-72
2021/04/06 02:03:14;;;;;;;2.03;1.10;;;1.90;99.90;;;;;;4988676;28;20048;-72
2021/04/06 02:05:45;;;;;;;2.70;1.33;;;1.90;99.90;;;;;;4989034;28;20045;-72
2021/04/06 02:08:18;;;;;;;2.22;1.25;;;1.90;99.90;;;;;;4989542;28;20038;-73
2021/04/06 02:10:43;;;;;;;3.30;1.30;;;1.80;99.90;;;;;;4988456;28;20038;-73
2021/04/06 02:13:14;;;;;;;5.65;1.23;;;1.90;99.90;;;;;;4983616;28;20384;-73
2021/04/06 02:15:52;;;;;;;4.90;1.20;;;1.90;99.90;;;;;;4988103;28;20030;-73
2021/04/06 02:18:26;;;;;;;2.88;1.20;;;1.90;99.90;;;;;;4986279;28;20041;-73
2021/04/06 02:20:53;;;;;;;1.55;1.13;;;1.90;99.90;;;;;;4988360;28;20025;-73
2021/04/06 02:23:19;;;;;;;3.28;1.20;;;1.90;99.90;;;;;;4987601;28;20469;-72
2021/04/06 02:25:50;;;;;;;6.85;1.25;;;1.90;99.90;;;;;;4989858;28;20027;-72
2021/04/06 02:28:15;;;;;;;3.05;1.20;;;1.90;99.90;;;;;;4989136;28;20030;-72
2021/04/06 02:30:50;;;;;;;2.83;1.20;;;1.90;99.90;;;;;;4979337;28;20356;-72
2021/04/06 02:33:16;;;;;;;5.72;1.30;;;1.90;99.90;;;;;;4985909;28;20544;-72
2021/04/06 02:35:56;;;;;;;2.47;1.25;;;1.90;99.90;;;;;;4984414;28;20027;-73
2021/04/06 02:38:22;;;;;;;1.15;1.00;;;1.90;99.90;;;;;;4988101;28;20116;-73
2021/04/06 02:40:48;;;;;;;2.20;1.27;;;1.90;99.90;;;;;;4979209;28;20486;-73
2021/04/06 02:43:13;;;;;;;1.73;1.08;;;1.90;99.90;;;;;;4984124;28;20026;-72
2021/04/06 02:45:39;;;;;;;3.80;1.42;;;1.80;99.90;;;;;;4982233;28;20402;-73
2021/04/06 02:48:12;;;;;;;1.00;0.90;;;1.80;99.90;;;;;;4980299;28;20034;-73
2021/04/06 02:50:40;;;;;;;3.03;1.27;;;1.80;99.90;;;;;;4989437;28;20030;-73
2021/04/06 02:53:10;;;;;;;5.47;1.08;;;1.70;99.90;;;;;;4986714;28;20023;-73
2021/04/06 02:55:38;;;;;;;3.33;1.27;;;1.70;99.90;;;;;;4985367;28;20030;-72
2021/04/06 02:58:13;;;;;;;2.90;1.35;;;1.70;99.90;;;;;;4988274;28;20031;-72
2021/04/06 03:00:39;;;;;;;5.03;1.90;;;1.70;99.90;;;;;;4986045;28;20486;-72
2021/04/06 03:03:19;;;;;;;2.45;1.40;;;1.70;99.90;;;;;;4984227;28;20029;-73
2021/04/06 03:05:44;;;;;;;9.63;1.83;;;1.60;99.90;;;;;;4986048;28;20056;-73
2021/04/06 03:08:10;;;;;;;1.27;1.10;;;1.60;99.90;;;;;;4988417;28;20092;-72
2021/04/06 03:10:37;;;;;;;5.97;1.42;;;1.60;99.90;;;;;;4989346;28;20031;-73
2021/04/06 03:13:12;;;;;;;2.13;1.48;;;1.60;99.90;;;;;;4976343;28;20030;-73
2021/04/06 03:15:42;;;;;;;6.43;1.60;;;1.60;99.90;;;;;;4981782;28;20034;-72
2021/04/06 03:18:09;;;;;;;8.65;1.20;;;1.60;99.90;;;;;;4981588;28;20118;-73
2021/04/06 03:20:39;;;;;;;4.18;1.30;;;1.60;99.90;;;;;;4986449;28;20034;-73
2021/04/06 03:23:06;;;;;;;1.60;1.30;;;1.60;99.90;;;;;;4979241;28;20038;-73
2021/04/06 03:25:33;;;;;;;3.20;1.20;;;1.60;99.90;;;;;;4986822;28;20117;-73
2021/04/06 03:28:13;;;;;;;2.38;1.20;;;1.60;99.90;;;;;;4989180;28;20605;-73
2021/04/06 03:30:39;;;;;;;3.50;1.50;;;1.60;99.90;;;;;;4988244;28;20400;-72
2021/04/06 03:33:09;;;;;;;4.15;1.50;;;1.50;99.90;;;;;;4989547;28;20038;-73
2021/04/06 03:35:38;;;;;;;7.20;1.67;;;1.50;99.90;;;;;;4988280;28;20507;-72
2021/04/06 03:38:06;;;;;;;3.70;1.45;;;1.50;99.90;;;;;;4984914;28;20029;-72
2021/04/06 03:40:37;;;;;;;5.13;1.52;;;1.50;99.90;;;;;;4988334;28;20025;-73
2021/04/06 03:43:13;;;;;;;2.45;1.17;;;1.50;99.90;;;;;;4987034;28;20033;-73
2021/04/06 03:45:59;;;;;;;5.00;1.35;;;1.50;99.90;;;;;;4975172;28;20064;-72
2021/04/06 03:48:27;;;;;;;4.28;1.30;;;1.50;99.90;;;;;;4988288;28;20512;-73
2021/04/06 03:50:53;;;;;;;2.13;1.38;;;1.50;99.90;;;;;;4987983;28;20043;-73
2021/04/06 03:53:21;;;;;;;3.05;1.50;;;1.50;99.90;;;;;;4986293;28;20030;-73
2021/04/06 03:56:01;;;;;;;3.78;1.42;;;1.50;99.90;;;;;;4988340;28;20039;-73
2021/04/06 03:58:30;;;;;;;4.72;2.10;;;1.50;99.90;;;;;;4987538;28;20102;-73
2021/04/06 04:00:55;;;;;;;5.00;1.70;;;1.50;99.90;;;;;;4967648;28;20030;-73
2021/04/06 04:03:20;;;;;;;5.88;1.60;;;1.50;99.90;;;;;;4985817;28;20048;-72
2021/04/06 04:05:51;;;;;;;3.10;1.58;;;1.40;99.90;;;;;;4976257;28;20043;-72
2021/04/06 04:08:17;;;;;;;3.17;2.25;;;1.50;99.90;;;;;;4988740;28;20026;-73
2021/04/06 04:10:43;;;;;;;6.63;1.75;;;1.40;99.90;;;;;;4988389;28;21694;-73
2021/04/06 04:13:08;;;;;;;4.38;1.48;;;1.40;99.90;;;;;;4988828;28;20508;-73
2021/04/06 04:15:34;;;;;;;5.47;1.52;;;1.40;99.90;;;;;;4983268;28;20023;-73
2021/04/06 04:18:01;;;;;;;4.65;1.40;;;1.40;99.90;;;;;;4987491;28;20018;-72
2021/04/06 04:20:27;;;;;;;6.63;1.52;;;1.40;99.90;;;;;;4985432;28;20037;-72
2021/04/06 04:22:53;;;;;;;5.05;1.52;;;1.40;99.90;;;;;;4988342;28;20393;-72
2021/04/06 04:25:20;;;;;;;5.78;1.67;;;1.40;99.90;;;;;;4988460;28;20027;-73
2021/04/06 04:27:46;;;;;;;2.13;1.40;;;1.40;99.90;;;;;;4985138;28;20074;-73
2021/04/06 04:30:13;;;;;;;3.22;1.65;;;1.40;99.90;;;;;;4979785;28;20056;-72
2021/04/06 04:32:39;;;;;;;3.95;2.10;;;1.30;99.90;;;;;;4987271;28;20158;-73
2021/04/06 04:35:05;;;;;;;4.30;1.85;;;1.40;99.90;;;;;;4991361;28;20118;-73
2021/04/06 04:37:34;;;;;;;7.15;1.92;;;1.30;99.90;;;;;;4981663;28;20581;-72
2021/04/06 04:39:59;;;;;;;4.85;1.60;;;1.40;99.90;;;;;;4986990;28;20072;-73
2021/04/06 04:42:25;;;;;;;6.35;1.63;;;1.30;99.90;;;;;;4979943;28;20498;-72
2021/04/06 04:44:50;;;;;;;5.75;1.80;;;1.30;99.90;;;;;;4990207;28;20073;-72
2021/04/06 04:47:16;;;;;;;5.57;1.77;;;1.30;99.90;;;;;;4987879;28;20049;-73
2021/04/06 04:49:41;;;;;;;3.67;1.85;;;1.30;99.90;;;;;;4987512;28;20030;-72
2021/04/06 04:52:07;;;;;;;2.60;1.48;;;1.30;99.90;;;;;;4985397;28;20410;-72
2021/04/06 04:54:32;;;;;;;4.07;1.90;;;1.30;99.90;;;;;;4990872;28;20437;-73
2021/04/06 04:56:59;;;;;;;5.60;2.05;;;1.30;99.90;;;;;;4985727;28;20030;-73
2021/04/06 04:59:24;;;;;;;3.88;1.67;;;1.30;99.90;;;;;;4987699;28;20062;-72
2021/04/06 05:01:50;;;;;;;7.28;2.20;;;1.30;99.90;;;;;;4981039;28;20112;-73
2021/04/06 05:04:16;;;;;;;7.20;2.28;;;1.40;99.90;;;;;;4988613;28;20173;-72
2021/04/06 05:06:41;;;;;;;6.95;2.25;;;1.40;99.90;;;;;;4990664;28;20105;-73
2021/04/06 05:09:08;;;;;;;6.00;2.00;;;1.40;99.90;;;;;;4990923;28;20030;-73
2021/04/06 05:11:34;;;;;;;4.00;1.92;;;1.40;99.90;;;;;;4990836;28;20525;-72
2021/04/06 05:14:18;;;;;;;4.10;1.77;;;1.40;99.90;;;;;;4979224;28;20054;-73
2021/04/06 05:16:44;;;;;;;6.10;2.30;;;1.40;99.90;;;;;;4981703;28;20030;-73
2021/04/06 05:19:09;;;;;;;3.67;1.95;;;1.50;99.90;;;;;;4988547;28;20030;-72
2021/04/06 05:21:35;;;;;;;7.00;1.88;;;1.50;99.90;;;;;;4986831;28;20034;-72
2021/04/06 05:24:00;;;;;;;3.50;1.70;;;1.50;99.90;;;;;;4989112;28;20421;-73
2021/04/06 05:26:26;;;;;;;8.00;2.05;;;1.50;99.90;;;;;;4990427;28;20104;-73
2021/04/06 05:28:51;;;;;;;3.70;1.98;;;1.60;99.90;;;;;;4988078;28;20038;-73
2021/04/06 05:31:17;;;;;;;6.25;1.90;;;1.60;99.90;;;;;;4979219;28;20433;-72
2021/04/06 05:33:42;;;;;;;2.95;1.52;;;1.60;99.90;;;;;;4981924;28;20038;-73
2021/04/06 05:36:08;;;;;;;3.47;1.70;;;1.60;99.90;;;;;;4991663;28;20022;-72
2021/04/06 05:38:33;;;;;;;2.60;1.50;;;1.60;99.90;;;;;;4983187;28;20062;-73
2021/04/06 05:40:59;;;;;;;5.38;1.90;;;1.70;99.90;;;;;;4989836;28;20125;-72
2021/04/06 05:43:27;;;;;;;2.80;1.63;;;1.70;99.90;;;;;;4987298;28;20030;-73
2021/04/06 05:45:55;;;;;;;5.75;2.15;;;1.60;99.90;;;;;;4980106;28;20045;-72
2021/04/06 05:48:22;;;;;;;7.97;2.30;;;1.70;99.90;;;;;;4991385;28;20089;-73
2021/04/06 05:50:52;;;;;;;7.00;2.03;;;1.70;99.90;;;;;;4988350;28;20050;-73
2021/04/06 05:53:21;;;;;;;5.93;2.10;;;1.70;99.90;;;;;;4983202;28;20098;-72
2021/04/06 05:55:50;;;;;;;6.13;1.92;;;1.80;99.90;;;;;;4986668;28;20129;-73
2021/04/06 05:58:16;;;;;;;6.45;2.30;;;1.70;99.90;;;;;;4995733;28;20053;-74
2021/04/06 06:00:41;;;;;;;4.45;1.85;;;1.80;99.90;;;;;;4989832;28;20056;-73
2021/04/06 06:03:08;;;;;;;3.35;1.80;;;1.80;99.90;;;;;;4982276;28;20045;-74
2021/04/06 06:05:35;;;;;;;3.03;1.77;;;1.80;99.90;;;;;;4984208;28;20030;-73
2021/04/06 06:08:07;;;;;;;4.03;2.03;;;1.90;99.90;;;;;;4988474;28;20030;-74
2021/04/06 06:10:34;;;;;;;4.80;2.05;;;1.90;99.90;;;;;;4996827;28;20041;-74
2021/04/06 06:13:18;;;;;;;7.60;2.58;;;1.90;99.90;;;;;;4990381;28;20113;-78
2021/04/06 06:16:16;;;;;;;13.98;3.53;;;2.00;99.90;;;;;;4989577;28;20035;-76
2021/04/06 06:19:10;;;;;;;5.85;2.65;;;2.10;99.90;;;;;;4983495;28;20082;-76
2021/04/06 06:21:47;;;;;;;5.93;2.58;;;2.20;99.90;;;;;;4988559;28;20025;-75
2021/04/06 06:24:30;;;;;;;5.38;1.98;;;2.20;99.90;;;;;;4987963;28;20080;-73
2021/04/06 06:26:57;;;;;;;5.28;1.60;;;2.20;99.90;;;;;;4984701;28;20030;-76
2021/04/06 06:29:30;;;;;;;3.47;2.03;;;2.30;99.90;;;;;;4978978;28;20482;-76
2021/04/06 06:31:58;;;;;;;4.15;1.90;;;2.20;99.90;;;;;;4980568;28;20035;-76
2021/04/06 06:34:27;;;;;;;7.68;2.28;;;2.20;99.90;;;;;;4980110;28;20033;-77
2021/04/06 06:37:14;;;;;;;4.05;1.85;;;2.20;99.90;;;;;;4984724;28;20489;-75
2021/04/06 06:39:57;;;;;;;5.70;1.77;;;2.20;99.90;;;;;;4986837;28;20019;-77
2021/04/06 06:42:26;;;;;;;7.32;2.08;;;2.30;99.90;;;;;;4987402;28;20038;-78
2021/04/06 06:44:52;;;;;;;2.95;1.65;;;2.40;99.90;;;;;;4989594;28;20041;-73
2021/04/06 06:47:25;;;;;;;4.18;2.17;;;2.40;99.90;;;;;;4986278;28;20030;-71
2021/04/06 06:49:53;;;;;;;4.75;2.00;;;2.50;99.90;;;;;;4987801;28;20097;-71
2021/04/06 06:52:21;;;;;;;5.43;2.20;;;2.60;99.90;;;;;;4984186;28;20053;-71
2021/04/06 06:54:48;;;;;;;5.18;1.98;;;2.70;99.90;;;;;;4981383;28;20489;-69
2021/04/06 06:57:15;;;;;;;4.22;2.13;;;2.80;99.90;;;;;;4979557;28;20512;-71
2021/04/06 06:59:44;;;;;;;4.00;1.92;;;2.90;99.90;;;;;;4985605;28;20485;-72
2021/04/06 07:02:27;;;;;;;6.18;1.67;;;3.00;99.90;;;;;;4976286;28;20042;-70
2021/04/06 07:05:08;;;;;;;9.70;2.85;;;3.20;99.90;;;;;;4983500;28;20680;-70
2021/04/06 07:08:09;;;;;;;5.50;2.78;;;3.30;99.90;;;;;;4988932;28;20124;-74
2021/04/06 07:10:37;;;;;;;4.95;2.20;;;3.40;99.90;;;;;;4975747;28;20044;-71
2021/04/06 07:13:11;;;;;;;3.13;2.08;;;3.40;99.90;;;;;;4987184;28;20120;-71
2021/04/06 07:15:38;;;;;;;6.95;3.05;;;3.50;99.90;;;;;;4987168;28;20030;-70
2021/04/06 07:18:14;;;;;;;3.90;1.98;;;3.50;99.90;;;;;;4968025;28;20018;-71
2021/04/06 07:21:01;;;;;;;9.55;2.17;;;3.50;99.90;;;;;;4977105;28;20081;-70
2021/04/06 07:23:45;;;;;;;5.07;2.45;;;3.60;99.50;;;;;;4988363;28;20498;-69
2021/04/06 07:26:13;;;;;;;4.10;2.00;;;3.60;99.70;;;;;;4982467;28;20035;-70
2021/04/06 07:28:40;;;;;;;4.93;2.08;;;3.60;99.80;;;;;;4983038;28;20034;-72
2021/04/06 07:31:16;;;;;;;4.45;2.30;;;3.60;99.20;;;;;;4983928;28;20037;-70
2021/04/06 07:33:47;;;;;;;4.18;1.50;;;3.60;99.40;;;;;;4978158;28;20560;-71
2021/04/06 07:36:15;;;;;;;4.78;2.47;;;3.70;99.70;;;;;;4984551;28;20076;-71
2021/04/06 07:38:47;;;;;;;4.22;1.92;;;3.90;99.30;;;;;;4978308;28;20026;-70
2021/04/06 07:41:14;;;;;;;4.57;1.88;;;4.10;98.70;;;;;;4977265;28;20026;-70
2021/04/06 07:43:41;;;;;;;9.27;2.83;;;4.30;98.20;;;;;;4983128;28;20039;-71
2021/04/06 07:46:07;;;;;;;8.00;2.35;;;4.40;97.20;;;;;;4981473;28;20165;-69
2021/04/06 07:48:51;;;;;;;4.30;1.98;;;4.40;96.70;;;;;;4983198;28;20102;-69
2021/04/06 07:51:18;;;;;;;5.85;2.22;;;4.40;97.00;;;;;;4982003;28;20549;-69
2021/04/06 07:53:55;;;;;;;4.18;1.98;;;4.40;96.70;;;;;;4983932;28;20030;-69
2021/04/06 07:56:43;;;;;;;3.28;1.92;;;4.40;96.80;;;;;;4977551;28;20026;-73
2021/04/06 07:59:09;;;;;;;5.43;2.30;;;4.50;97.50;;;;;;4977747;28;20026;-71
2021/04/06 08:01:34;;;;;;;5.45;1.90;;;4.50;96.60;;;;;;4980394;28;20063;-72
2021/04/06 08:04:02;;;;;;;6.20;2.33;;;4.50;95.70;;;;;;4986428;28;20501;-72
2021/04/06 08:06:52;;;;;;;5.78;2.13;;;4.50;96.00;;;;;;4988036;28;20465;-74
2021/04/06 08:09:37;;;;;;;5.85;1.90;;;4.60;96.40;;;;;;4988586;28;20717;-74
2021/04/06 08:12:10;;;;;;;5.40;1.95;;;4.70;95.60;;;;;;4989650;28;20058;-76
2021/04/06 08:14:51;;;;;;;6.18;2.25;;;4.60;96.00;;;;;;4985847;28;20034;-74
2021/04/06 08:17:25;;;;;;;4.10;2.22;;;4.60;96.10;;;;;;4980662;28;20117;-72
2021/04/06 08:20:05;;;;;;;6.43;2.25;;;4.70;95.70;;;;;;4985996;28;20045;-72
2021/04/06 08:22:43;;;;;;;5.15;2.08;;;4.70;95.90;;;;;;4988868;28;20078;-72
2021/04/06 08:25:18;;;;;;;13.00;2.67;;;4.80;95.70;;;;;;4992067;28;20038;-73
2021/04/06 08:27:47;;;;;;;7.05;2.38;;;5.00;95.20;;;;;;4991090;28;20014;-73
2021/04/06 08:30:15;;;;;;;8.90;2.58;;;5.20;94.80;;;;;;4991064;28;20287;-71
2021/04/06 08:32:43;;;;;;;6.30;1.95;;;5.20;94.10;;;;;;4988325;28;20018;-74
2021/04/06 08:35:08;;;;;;;5.57;1.98;;;5.10;93.40;;;;;;4989994;28;20034;-72
2021/04/06 08:37:37;;;;;;;7.72;2.42;;;5.20;93.50;;;;;;4984407;28;20018;-74
2021/04/06 08:40:07;;;;;;;7.75;2.40;;;5.20;93.50;;;;;;4986139;28;20054;-72
2021/04/06 08:42:34;;;;;;;7.35;2.42;;;5.20;93.50;;;;;;4987824;28;20027;-72
2021/04/06 08:45:01;;;;;;;5.85;2.47;;;5.20;94.00;;;;;;4982077;28;20026;-71
2021/04/06 08:47:37;;;;;;;8.77;2.65;;;5.20;93.80;;;;;;4987476;28;20118;-72
2021/04/06 08:50:05;;;;;;;7.30;2.35;;;5.30;93.80;;;;;;4987227;28;20081;-72
2021/04/06 08:52:31;;;;;;;12.45;2.30;;;5.30;93.10;;;;;;4988070;28;20505;-71
2021/04/06 08:55:06;;;;;;;6.68;2.28;;;5.40;93.30;;;;;;4990578;28;20075;-72
2021/04/06 08:57:31;;;;;;;3.25;2.08;;;5.40;93.20;;;;;;4991534;28;20103;-72
2021/04/06 09:00:06;;;;;;;7.03;2.58;;;5.50;93.10;;;;;;4976169;28;20023;-72
2021/04/06 09:02:31;;;;;;;5.55;1.98;;;5.50;93.30;;;;;;4986303;28;20229;-72
2021/04/06 09:04:57;;;;;;;7.90;2.10;;;5.50;93.10;;;;;;4983216;28;20034;-73
2021/04/06 09:07:25;;;;;;;6.95;2.53;;;5.40;93.00;;;;;;4987380;28;20029;-72
2021/04/06 09:10:11;;;;;;;7.40;2.53;;;5.50;93.30;;;;;;4989337;28;20092;-75
2021/04/06 09:12:40;;;;;;;14.25;2.50;;;5.50;93.00;;;;;;4986646;28;20030;-71
2021/04/06 09:15:07;;;;;;;6.20;2.17;;;5.50;93.20;;;;;;4995835;28;20061;-71
2021/04/06 09:17:34;;;;;;;7.20;2.03;;;5.60;92.70;;;;;;4984602;28;20026;-71
2021/04/06 09:20:06;;;;;;;7.90;2.15;;;5.70;93.30;;;;;;4991057;28;20134;-71
2021/04/06 09:22:31;;;;;;;7.60;2.40;;;5.90;92.60;;;;;;4985881;28;20113;-72
2021/04/06 09:24:57;;;;;;;5.70;2.20;;;6.00;91.60;;;;;;4990222;28;20114;-72
2021/04/06 09:27:23;;;;;;;5.85;2.15;;;6.00;91.50;;;;;;4991143;28;20027;-71
2021/04/06 09:29:50;;;;;;;5.88;3.33;;;6.00;91.50;;;;;;4989693;28;20117;-70
2021/04/06 09:32:20;;;;;;;4.13;1.90;;;5.90;91.40;;;;;;4981165;28;20032;-70
2021/04/06 09:34:49;;;;;;;8.13;2.53;;;5.90;91.00;;;;;;4980705;28;20041;-76
2021/04/06 09:37:20;;;;;;;6.72;2.53;;;6.10;91.50;;;;;;4989623;28;20506;-74
2021/04/06 09:39:51;;;;;;;5.60;1.83;;;6.20;90.80;;;;;;4986511;28;20437;-75
2021/04/06 09:42:17;;;;;;;6.22;2.50;;;6.30;90.40;;;;;;4978592;28;20026;-71
2021/04/06 09:44:45;;;;;;;4.95;1.73;;;6.40;89.20;;;;;;4982281;28;20071;-73
2021/04/06 09:47:13;;;;;;;6.38;2.20;;;6.40;87.70;;;;;;4987787;28;20038;-69
2021/04/06 09:49:51;;;;;;;4.43;1.63;;;6.40;88.00;;;;;;4985995;28;20033;-71
2021/04/06 09:52:19;;;;;;;4.65;1.85;;;6.50;86.50;;;;;;4987211;28;20224;-71
2021/04/06 09:54:52;;;;;;;12.23;2.58;;;6.50;83.20;;;;;;4981865;28;20050;-70
2021/04/06 09:57:18;;;;;;;8.27;2.10;;;6.60;83.50;;;;;;4977674;28;20038;-70
2021/04/06 09:59:50;;;;;;;6.25;1.85;;;6.70;82.40;;;;;;4978547;28;20030;-70
2021/04/06 10:02:18;;;;;;;3.60;1.73;;;6.70;81.30;;;;;;4980294;28;20122;-70
2021/04/06 10:04:47;;;;;;;5.05;1.90;;;6.60;81.80;;;;;;4992475;28;20118;-70
2021/04/06 10:07:25;;;;;;;9.10;2.03;;;6.50;82.40;;;;;;4984865;28;20385;-72
2021/04/06 10:09:54;;;;;;;5.10;2.13;;;6.60;82.50;;;;;;4984219;28;20031;-69
2021/04/06 10:12:22;;;;;;;6.22;1.75;;;6.70;80.90;;;;;;4979661;28;20026;-70
2021/04/06 10:14:49;;;;;;;7.20;2.17;;;6.60;80.50;;;;;;4985153;28;20041;-69
2021/04/06 10:17:20;;;;;;;4.28;2.33;;;6.50;79.70;;;;;;4984360;28;20030;-71
2021/04/06 10:19:56;;;;;;;8.07;1.90;;;6.40;80.90;;;;;;4981862;28;20092;-69
2021/04/06 10:22:25;;;;;;;6.05;2.15;;;6.60;81.80;;;;;;4981424;28;20066;-69
2021/04/06 10:24:57;;;;;;;5.65;1.65;;;6.80;80.80;;;;;;4986938;28;20061;-69
2021/04/06 10:27:22;;;;;;;;;;;6.80;79.40;;;;;;4989103;28;20034;-69
2021/04/06 10:29:56;;;;;;;4.13;1.67;;;6.80;78.20;;;;;;4982277;28;19909;-69
2021/04/06 10:32:26;;;;;;;5.70;1.85;;;6.70;79.00;;;;;;4974874;28;20583;-71
2021/04/06 10:34:55;;;;;;;5.77;1.80;;;6.70;79.90;;;;;;4990472;28;20402;-71
2021/04/06 10:37:20;;;;;;;4.22;1.70;;;6.70;78.70;;;;;;4986572;28;20030;-71
2021/04/06 10:39:47;;;;;;;6.75;1.48;;;6.70;78.80;;;;;;4983646;28;20037;-71
2021/04/06 10:42:15;;;;;;;5.30;1.45;;;6.80;76.30;;;;;;4976263;28;20026;-71
2021/04/06 10:44:43;;;;;;;10.52;1.70;;;7.00;76.60;;;;;;4986120;28;20122;-72
2021/04/06 10:47:19;;;;;;;5.88;1.90;;;7.20;75.70;;;;;;4986216;28;20130;-74
2021/04/06 10:49:59;;;;;;;10.43;1.75;;;7.30;74.90;;;;;;5062918;28;20377;-71
2021/04/06 10:52:33;;;;;;;7.43;2.15;;;7.10;78.50;;;;;;5049749;28;20029;-74
2021/04/06 10:55:00;;;;;;;2.90;1.58;;;7.10;78.20;;;;;;5044793;28;20029;-71
2021/04/06 10:57:35;;;;;;;12.10;1.50;;;7.20;78.80;;;;;;5049340;28;20037;-71
2021/04/06 11:00:19;;;;;;;2.78;1.38;;;7.30;75.70;;;;;;5045055;28;20037;-71
2021/04/06 11:02:45;;;;;;;2.40;1.48;;;7.50;75.60;;;;;;5046447;28;20040;-72
2021/04/06 11:05:54;;;;;;;5.72;1.75;;;7.80;76.30;;;;;;5035504;28;20391;-71
2021/04/06 11:08:26;;;;;;;3.00;1.25;;;8.20;70.30;;;;;;5049978;28;20041;-71
2021/04/06 11:11:13;;;;;;;6.10;1.35;;;8.20;67.80;;;;;;5045982;28;20025;-71
2021/04/06 11:13:38;;;;;;;5.57;1.25;;;8.00;69.50;;;;;;5045562;28;20052;-72
2021/04/06 11:16:04;;;;;;;4.07;1.15;;;8.00;70.30;;;;;;5054892;28;20522;-71
2021/04/06 11:18:30;;;;;;;4.35;1.52;;;8.10;68.90;;;;;;5045808;28;20070;-71
2021/04/06 11:20:55;;;;;;;4.35;1.50;;;8.20;68.80;;;;;;5049746;28;20478;-72
2021/04/06 11:23:21;;;;;;;7.22;1.45;;;8.50;69.20;;;;;;5045736;28;20029;-71
2021/04/06 11:25:46;;;;;;;3.35;1.60;;;8.80;67.20;;;;;;5044753;28;20048;-71
2021/04/06 11:28:12;;;;;;;4.43;1.63;;;9.10;66.50;;;;;;5042451;28;20034;-71
2021/04/06 11:30:40;;;;;;;2.95;1.30;;;9.60;66.30;;;;;;5048903;28;20053;-71
2021/04/06 11:33:06;;;;;;;4.43;1.55;;;9.60;60.90;;;;;;5046122;28;20022;-70
2021/04/06 11:35:32;;;;;;;3.22;1.05;;;9.30;60.60;;;;;;5045477;28;20021;-74
2021/04/06 11:37:57;;;;;;;4.53;0.95;;;8.90;68.40;;;;;;5055637;28;20064;-71
2021/04/06 11:40:24;;;;;;;5.65;1.23;;;8.30;75.30;;;;;;5055844;28;20056;-72
2021/04/06 11:42:51;;;;;;;3.60;1.20;;;7.50;83.40;;;;;;5047795;28;20044;-71
2021/04/06 11:45:16;;;;;;;5.72;1.30;;;6.60;91.80;;;;;;5048727;28;20038;-71
2021/04/06 11:47:42;;;;;;;3.75;1.23;;;6.20;93.70;;;;;;5041079;28;20513;-71
2021/04/06 11:50:08;;;;;;;5.65;1.80;;;5.80;94.70;;;;;;5027300;28;20034;-71
2021/04/06 11:52:35;;;;;;;4.10;1.67;;;5.70;96.00;;;;;;5040646;28;20049;-71
2021/04/06 11:55:01;;;;;;;3.15;1.40;;;5.70;95.90;;;;;;5049982;28;20060;-71
2021/04/06 11:57:27;;;;;;;2.03;1.45;;;5.90;96.40;;;;;;5046916;28;20482;-71
2021/04/06 11:59:55;;;;;;;4.78;1.50;;;6.70;96.10;;;;;;5030296;28;20033;-71
2021/04/06 12:02:21;;;;;;;5.07;1.75;;;7.80;95.30;;;;;;5031061;28;20087;-71
2021/04/06 12:04:46;;;;;;;4.38;1.23;;;9.00;95.40;;;;;;5039452;28;20025;-71
2021/04/06 12:07:15;;;;;;;1.98;1.10;;;10.20;84.20;;;;;;5031801;28;20518;-71
2021/04/06 12:09:41;;;;;;;2.13;1.17;;;11.20;74.30;;;;;;5031618;28;20047;-71
2021/04/06 12:12:06;;;;;;;6.07;1.40;;;12.00;66.20;;;;;;5032290;28;20022;-71
2021/04/06 12:14:32;;;;;;;2.72;1.42;;;12.50;59.90;;;;;;5036322;28;20033;-71
2021/04/06 12:16:57;;;;;;;2.00;1.65;;;13.10;63.10;;;;;;5032626;28;20017;-71
2021/04/06 12:19:23;;;;;;;4.18;1.42;;;13.90;57.20;;;;;;5039032;28;20547;-72
2021/04/06 12:21:48;;;;;;;4.60;2.05;;;14.60;56.80;;;;;;5031696;28;20033;-72
2021/04/06 12:24:14;;;;;;;4.05;1.55;;;15.10;52.30;;;;;;5031203;28;20025;-71
2021/04/06 12:26:39;;;;;;;2.65;1.00;;;15.60;47.60;;;;;;5031471;28;20112;-71
2021/04/06 12:29:07;;;;;;;5.30;1.63;;;15.50;46.00;;;;;;5032059;28;20042;-71
2021/04/06 12:31:33;;;;;;;2.53;1.05;;;14.90;49.60;;;;;;5040195;28;20160;-72
2021/04/06 12:33:58;;;;;;;3.10;1.10;;;14.30;52.00;;;;;;5033112;28;20101;-71
2021/04/06 12:36:24;;;;;;;4.18;0.80;;;13.80;54.70;;;;;;5029810;28;20032;-72
2021/04/06 12:38:50;;;;;;;2.90;1.30;;;14.40;56.20;;;;;;5032404;28;20037;-71
2021/04/06 12:41:16;;;;;;;3.67;1.33;;;14.30;53.40;;;;;;5033014;28;20041;-71
2021/04/06 12:43:42;;;;;;;2.67;1.20;;;13.70;50.10;;;;;;5032669;28;20528;-71
2021/04/06 12:46:07;;;;;;;5.13;1.23;;;12.90;51.30;;;;;;5039057;28;20028;-71
2021/04/06 12:48:33;;;;;;;3.20;1.30;;;12.00;51.00;;;;;;5032081;28;20088;-72
2021/04/06 12:50:58;;;;;;;3.25;1.08;;;12.10;50.40;;;;;;5033710;28;20049;-71
2021/04/06 12:53:24;;;;;;;2.33;1.25;;;12.90;46.80;;;;;;5035940;28;20025;-72
2021/04/06 12:55:51;;;;;;;3.28;1.30;;;13.80;44.40;;;;;;5034936;28;20088;-71
2021/04/06 12:58:17;;;;;;;2.95;1.20;;;14.40;43.30;;;;;;5028356;28;20090;-71
2021/04/06 13:00:43;;;;;;;2.55;1.30;;;14.70;42.40;;;;;;5037468;28;20041;-72
2021/04/06 13:03:08;;;;;;;3.47;1.25;;;15.30;41.20;;;;;;5032567;28;20491;-72
2021/04/06 13:05:34;;;;;;;5.38;1.50;;;15.90;39.60;;;;;;5031237;28;20427;-72
2021/04/06 13:07:59;;;;;;;2.85;1.00;;;16.50;37.40;;;;;;5036620;28;20036;-71
2021/04/06 13:10:25;;;;;;;1.20;0.80;;;16.90;37.10;;;;;;5038837;28;20450;-73